Meath Environmental Platform

Observations for Trim Patrick St

Time AQI Temp °C Hum % Pres Pa CO μg/m³ H₂S μg/m³ NO μg/m³ NO₂ μg/m³ O₃ μg/m³ SO₂ μg/m³ PM1 μg/m³ PM2.5 μg/m³ PM10 μg/m³
Thursday 6 August 2026
22:50 2 16.3 63 74,342 0.01 6.49 2.61 15.18 46.06 0.16 2 6.35 6.98
22:49 2 16.3 62 74,324 0.02 7.19 2.55 16.06 45.51 0 2 6.36 7
22:48 2 16.3 63 74,304 0.01 7.82 2.63 19.69 45.74 0 2 5.61 6.17
22:43 2 16.5 62 74,221 0.01 7.24 2.08 21.65 44.95 0.68 2.86 7.12 7.83
22:42 2 16.6 62 74,208 0.01 7.14 2.01 15.24 46.68 0.3 2.86 7.87 8.66
22:41 2 16.6 62 74,182 0 7.5 2.44 16.57 44.63 0.13 2.86 6.4 7.04
22:40 2 16.6 62 74,163 0.01 7.71 2.53 20.56 45.8 0 2 6.4 7.04
22:39 2 16.7 61 74,133 0 8.63 2.55 27.59 45.27 0.17 2 6.46 7.11
22:38 2 16.7 62 74,096 0 7.24 2.42 20.91 40 0.76 2 6.41 7.05
22:37 2 16.7 61 74,062 0 8.58 2.21 19.42 51.93 0 2.86 6.43 7.08
22:36 2 16.7 61 74,017 0.02 8.52 1.81 21.68 45.72 0.53 2.86 8.66 9.52
22:35 2 16.8 62 73,964 0.01 8.34 1.59 21.2 49.14 0.41 2.86 7.17 7.88
22:34 2 16.8 61 73,931 0.02 7.87 1.36 19.79 47.55 0.49 2 7.17 7.89
22:33 2 16.8 61 73,887 0.01 6.98 1.2 18.39 44.56 0.49 2 6.45 7.09
22:32 2 16.9 61 73,833 0 8.11 1.18 18.61 48.76 0.4 2.86 7.96 8.76
22:31 2 16.9 60 73,791 0.01 7.61 1.14 21.99 42.54 0.61 2.86 7.29 8.02
22:30 2 17 60 73,746 0 7.19 1.25 12.72 44.04 1.01 2.86 8.74 9.62
22:29 2 17 60 73,715 0.01 8.37 1.3 22.52 47.52 0.44 2 7.99 8.79
22:28 2 17 60 73,642 0.01 7.95 1.83 18.9 43.36 0.83 2.86 8.72 9.59
22:27 2 17.1 61 73,611 0 7.71 1.32 16.65 49.44 0.74 2.86 7.23 7.95